Campbell AAF (Fort Campbell) Air Field Fort Campbell, Hopkinsville US
ICAO: KHOP
IATA: HOP
Category: Medium
Scheduled Services: No

Elevation: 573 ft
TransAlt. 18000 ft.

Airport Communications:
APP:118.1
ATIS:125.175
CLNC DEL:138.8
DEP:118.1
GND:121.8
PMSV METRO:34.33
EAGLE CON:65.2
PTD:130.65
TWR:120.9

KHOP Zoom In..

Runways:

(A) RW 05 length 11822 ft width 200 ft
---- / hdg 45

(B) RW 18 length 4001 ft width 155 ft
---- / hdg 180

(C) RW 23 length 11822 ft width 200 ft
ILS 111.90 / hdg 225

(D) RW 36 length 4001 ft width 155 ft
---- / hdg 360

Location; KHOP
Day. 11 / Time. 08.56 Zulu
* Altimeter: 29.92
* Temperature: 21° c. 69.8°f.
* Wind from: 170° Speed 07 kn.
Dewpoint: 21° c.
Visibility: 10 Statute Miles.
Clouds: Clear (automated report).

KHOP 110856Z AUTO 17007KT 10SM CLR 21/21 A2992 RMK AO2 DZE28 PRESFR SLP128 P0001 60002 T02140212 58044

Going to: --> -->


Wind From 170°
Speed 07 kn.

 
 
jpsmedia worldairports.se 2020   terms of use